• Join FlightAware (Why Join?)
  • Login
  • US Flag 
02:01AM EDT


 

Airport Tracker/Info


-or-


 

Live Flight TrackerFlight Track Log ✈ UAL532 ✈ 07-Jun-2013 ✈ KDEN - KORD

Flight Track Log - Related Links

Times and Time Zones

All times are in EDT time to prevent confusion due to time zone crossing. See the UAL532 flight status page for this flight to view local times or setup timezone preferences in your user account.

Time Position Orientation Groundspeed Altitude Reporting Facility
EDT Latitude Longitude Course Direction KTS MPH feet Rate Location/Type
08:03AM 39.8833 -104.5667 82° East 207 238 6,700  Level Denver TRACON
08:04AM 39.8667 -104.4833 105° East 245 282 9,100 2,040 Climbing Denver TRACON
08:05AM 39.8692 -104.4519 84° East 246 283 9,400 1,260 Climbing Denver Center
08:06AM 39.9551 -104.0863 78° East  Level FlightAware Approximate
08:06AM 39.8839 -104.3392 80° East 320 368 10,900  Level Denver Center
08:07AM 39.9818 -103.9410 75° East  Level FlightAware Approximate
08:07AM 39.9156 -104.2147 72° East 361 415 13,700  Level Denver Center
08:08AM 40.0070 -103.7957 66° East  Level FlightAware Approximate
08:08AM 39.9447 -104.0908 73° East 362 417 16,000  Level Denver Center
08:09AM 40.0297 -103.6499 82° East  Level FlightAware Approximate
08:09AM 39.9706 -103.9794 73° East 379 436 17,800  Level Denver Center
08:10AM 40.0094 -103.8106 73° East 396 456 20,200 1,920 Climbing Denver Center
08:11AM 40.0367 -103.6736 75° East 390 449 21,800 1,500 Climbing Denver Center
08:12AM 40.0606 -103.5231 78° East 419 482 23,300 1,380 Climbing Denver Center
08:13AM 40.0869 -103.3689 77° East 433 498 24,700 1,440 Climbing Denver Center
08:14AM 40.1114 -103.2094 79° East 446 513 26,300 1,320 Climbing Denver Center
08:15AM 40.1369 -103.0494 78° East 450 518 27,400 1,140 Climbing Denver Center
08:16AM 40.1628 -102.8853 78° East 461 531 28,700 960 Climbing Denver Center
08:17AM 40.1892 -102.7200 78° East 466 536 29,400 720 Climbing Denver Center
08:18AM 40.2092 -102.5850 79° East 474 545 30,200 1,320 Climbing Denver Center
08:19AM 40.2425 -102.3672 79° East 476 548 32,100 1,380 Climbing Denver Center
08:20AM 40.2761 -102.1536 78° East 472 543 33,600 1,140 Climbing Denver Center
08:21AM 40.3019 -101.9681 80° East 466 536 34,900 660 Climbing Denver Center
08:22AM 40.3233 -101.8381 78° East 460 529 35,000  Climbing Denver Center
08:23AM 40.3536 -101.6253 79° East 465 535 35,000 120 Level Denver Center
08:25AM 40.3767 -101.4667 79° East 465 535 35,300 540 Climbing Denver Center
08:26AM 40.4072 -101.2542 79° East 466 536 36,300 780 Climbing Denver Center
08:27AM 40.4528 -101.1036 68° East 465 535 37,000 300 Climbing Denver Center
08:28AM 40.5047 -100.9611 64° Northeast 457 526 37,000  Level Denver Center
08:29AM 40.5650 -100.7914 65° Northeast 461 531 37,000  Level Denver Center
08:30AM 40.6142 -100.6481 66° East 457 526 37,000  Level Denver Center
08:31AM 40.6733 -100.4831 65° Northeast 453 521 37,000  Level Denver Center
08:32AM 40.7311 -100.3161 65° Northeast 452 520 37,000  Level Denver Center
08:33AM 40.7900 -100.1489 65° Northeast 452 520 37,000  Level Denver Center
08:34AM 40.8394 -100.0047 66° East 452 520 37,000  Level Denver Center
08:35AM 40.8978 -99.8361 65° Northeast 452 520 37,000  Level Denver Center
08:36AM 40.9506 -99.6822 66° East 455 524 37,000  Level Denver Center
08:37AM 40.9919 -99.5628 65° Northeast 453 521 37,000  Level Minneapolis Center
08:38AM 41.0436 -99.4097 66° East 453 521 37,000  Level Minneapolis Center
08:39AM 41.0953 -99.2547 66° East 456 525 37,000  Level Minneapolis Center
08:40AM 41.1467 -99.1014 66° East 455 524 37,000  Level Minneapolis Center
08:41AM 41.2108 -98.9086 66° East 457 526 37,000  Level Denver Center
08:42AM 41.2536 -98.7900 64° Northeast 466 536 37,000  Level Minneapolis Center
08:43AM 41.3011 -98.6344 68° East 460 529 37,000  Level Minneapolis Center
08:44AM 41.3511 -98.4817 66° East 453 521 37,000  Level Minneapolis Center
08:45AM 41.4053 -98.3119 67° East 456 525 37,000  Level Minneapolis Center
08:46AM 41.4547 -98.1581 67° East 453 521 37,000  Level Minneapolis Center
08:47AM 41.5106 -97.9856 67° East 454 522 37,000  Level Minneapolis Center
08:48AM 41.5606 -97.8294 67° East 456 525 37,000  Level Minneapolis Center
08:49AM 41.6108 -97.6719 67° East 459 528 37,000  Level Minneapolis Center
08:50AM 41.6608 -97.5153 67° East 459 528 37,000  Level Minneapolis Center
08:51AM 41.7106 -97.3547 67° East 463 533 37,000  Level Minneapolis Center
08:52AM 41.7600 -97.1953 67° East 463 533 37,000  Level Minneapolis Center
08:53AM 41.8097 -97.0336 68° East 467 537 37,000  Level Minneapolis Center
08:54AM 41.8697 -96.8392 67° East 469 540 37,000  Level Minneapolis Center
08:55AM 41.9186 -96.6781 68° East 466 536 37,000  Level Minneapolis Center
08:56AM 41.9539 -96.5081 74° East 469 540 37,000  Level Minneapolis Center
08:57AM 41.9717 -96.3308 82° East 477 549 37,000  Level Minneapolis Center
08:58AM 41.9900 -96.1522 82° East 479 551 37,000  Level Minneapolis Center
08:59AM 42.0078 -95.9750 82° East 476 548 37,000  Level Minneapolis Center
09:00AM 42.0253 -95.7972 82° East 477 549 37,000  Level Minneapolis Center
09:01AM 42.0414 -95.6197 83° East 476 548 37,000  Level Minneapolis Center
09:02AM 42.0575 -95.4428 83° East 477 549 37,000  Level Minneapolis Center
09:03AM 42.0744 -95.2667 83° East 474 545 37,000  Level Minneapolis Center
09:04AM 42.0939 -95.0550 83° East 475 547 37,000  Level Minneapolis Center
09:05AM 42.1094 -94.8769 83° East 478 550 37,000  Level Minneapolis Center
09:06AM 42.1247 -94.6989 83° East 479 551 37,000  Level Minneapolis Center
09:08AM 42.1400 -94.5208 83° East 478 550 37,000  Level Minneapolis Center
09:09AM 42.1553 -94.3428 83° East 478 550 37,000  Level Minneapolis Center
09:10AM 42.1692 -94.1642 84° East 477 549 37,000  Level Minneapolis Center
09:11AM 42.1847 -93.9872 83° East 475 547 37,000  Level Minneapolis Center
09:12AM 42.1978 -93.8083 84° East 473 544 37,000  Level Minneapolis Center
09:13AM 42.2158 -93.5975 83° East 475 547 37,000  Level Minneapolis Center
09:14AM 42.2289 -93.4236 84° East 472 543 37,000  Level Minneapolis Center
09:15AM 42.2414 -93.2458 85° East 472 543 37,000  Level Minneapolis Center
09:16AM 42.2550 -93.0753 84° East 472 543 37,000  Level Minneapolis Center
09:17AM 42.2669 -92.9008 85° East 472 543 37,000 -180 Level Minneapolis Center
09:18AM 42.2792 -92.7258 85° East 473 544 36,700 -660 Descending Minneapolis Center
09:19AM 42.2914 -92.5483 85° East 475 547 35,700 -960 Descending Chicago Center
09:20AM 42.3025 -92.3706 85° East 481 554 34,800 -1,020 Descending Chicago Center
09:21AM 42.3158 -92.1592 85° East 479 551 33,600 -1,020 Descending Chicago Center
09:22AM 42.3275 -91.9872 85° East 470 541 32,700 -960 Descending Chicago Center
09:23AM 42.3389 -91.8181 85° East 462 532 31,700 -840 Descending Chicago Center
09:24AM 42.3492 -91.6500 85° East 457 526 31,000 -360 Descending Chicago Center
09:25AM 42.3606 -91.4508 86° East 453 521 31,000  Level Chicago Center
09:26AM 42.3697 -91.2806 86° East 459 528 31,000  Level Chicago Center
09:27AM 42.3800 -91.0967 86° East 493 567 31,000  Level Chicago Center
09:28AM 42.3897 -90.9172 86° East 489 563 31,000  Level Chicago Center
09:29AM 42.4003 -90.7356 85° East 491 565 31,000 -360 Level Chicago Center
09:30AM 42.4200 -90.5203 83° East 487 560 30,300 -1,140 Descending Chicago Center
09:31AM 42.4392 -90.3461 81° East 475 547 28,700 -1,560 Descending Chicago Center
09:32AM 42.4561 -90.1739 82° East 468 539 27,100 -1,560 Descending Chicago Center
09:33AM 42.4739 -90.0031 82° East 464 534 25,500 -1,620 Descending Chicago Center
09:34AM 42.4919 -89.8094 83° East 452 520 23,800 -1,620 Descending Chicago Center
09:35AM 42.4811 -89.6450 95° East 444 511 22,200 -2,160 Descending Chicago Center
09:36AM 42.4633 -89.4864 99° East 427 491 19,400 -2,820 Descending Chicago Center
09:37AM 42.4500 -89.3325 97° East 414 476 16,400 -2,640 Descending Chicago Center
09:38AM 42.4347 -89.1653 97° East 387 445 14,100 -1,200 Descending Chicago Center
09:39AM 42.4239 -89.0275 96° East 371 427 14,000 -780 Descending Chicago Center
09:40AM 42.4097 -88.8869 98° East 375 432 12,500 -1,080 Descending Chicago Center
09:42AM 42.3997 -88.7667 96° East 333 383 11,800 -1,020 Descending Chicago Center
09:43AM 42.3883 -88.6528 98° East 310 357 10,400 -1,320 Descending Chicago Center
09:44AM 42.3772 -88.5261 97° East 295 339 9,100 -900 Descending Chicago Center
09:45AM 42.3342 -88.4356 123° Southeast 294 338 8,600 -540 Descending Chicago Center
09:46AM 42.2658 -88.4075 163° South 275 316 8,000 -300 Descending Chicago Center
09:47AM 42.2000 -88.4019 176° South 243 280 8,000  Level Chicago Center
09:48AM 42.1347 -88.3975 177° South 238 274 8,000 -360 Level Chicago Center
09:49AM 42.0764 -88.3983 181° South 215 247 7,300 -1,020 Descending Chicago Center
09:50AM 42.0108 -88.3939 177° South 199 229 5,900 -1,140 Descending Chicago Center
09:51AM 41.9819 -88.3308 122° Southeast 199 229 5,000 -480 Descending Chicago Center
09:52AM 41.9675 -88.2633 106° East 189 217 5,000 -240 Level Chicago Center
09:53AM 41.9669 -88.1983 91° East 179 206 4,600 -660 Descending Chicago Center
09:54AM 41.9681 -88.1336 89° East 178 205 3,700 -900 Descending Chicago Center
09:54AM 41.9667 -88.1000 93° East 158 182 3,400 -1,020 Descending Chicago TRACON